Cornholme, United Kingdom
Current Conditions -  °F | °C
As of 10:20 AM on Sunday 26 Oct 2014 (Local Time) from EGNM Reporting Station
Broken Clouds Broken Clouds  
Wind Chill: 12°   Ceiling: 2400
Heat Index: 12°   Visibility: 6mi
Dew Point:   Wind: 17mph
Humidity: 77%   Direction: 210°SSW
Pressure: 29.91"   Gusts: NA
Location:  53.73°N, 2.14°W
Report Text: EGNM 260920Z 21015KT 9999 FEW015 BKN024 12/08 Q1013
Loading
Personal Weather Stations






























Interactive Weather Map
Tropical Storm Tracking
New forecast layout! Learn more

10-Day Weather Forecast

Advertisements
Track Severe Weather on mobile